Time;durP1;ratioP1;P1;durP2;ratioP2;P2;SDS_P1;SDS_P2;PMS_P1;PMS_P2;Temp;Humidity;BMP_temperature;BMP_pressure;BME280_temperature;BME280_humidity;BME280_pressure;Samples;Min_cycle;Max_cycle;Signal;HPM_P1;HPM_P2
2023/06/20 00:00:59;;;;;;;4.38;2.80;;;22.50;83.20;;;;;;5022008;28;20033;-76
2023/06/20 00:03:25;;;;;;;3.80;2.70;;;22.50;83.50;;;;;;5022434;28;20037;-76
2023/06/20 00:05:50;;;;;;;4.00;2.63;;;22.40;83.70;;;;;;5022397;28;20038;-77
2023/06/20 00:08:16;;;;;;;5.50;3.30;;;22.40;83.90;;;;;;5037278;28;20022;-76
2023/06/20 00:10:42;;;;;;;5.32;3.13;;;22.30;84.10;;;;;;5004352;28;20030;-77
2023/06/20 00:13:07;;;;;;;3.97;2.70;;;22.30;84.10;;;;;;5000094;28;20144;-77
2023/06/20 00:15:33;;;;;;;4.47;3.00;;;22.30;84.10;;;;;;5004634;28;20140;-77
2023/06/20 00:18:01;;;;;;;4.70;3.22;;;22.20;84.00;;;;;;5000878;28;20048;-77
2023/06/20 00:20:28;;;;;;;4.60;3.10;;;22.20;84.00;;;;;;5023342;28;20033;-76
2023/06/20 00:22:54;;;;;;;4.90;3.08;;;22.30;84.00;;;;;;5036875;28;20060;-76
2023/06/20 00:25:21;;;;;;;4.28;3.00;;;22.20;84.00;;;;;;5021827;28;20037;-76
2023/06/20 00:27:46;;;;;;;3.78;2.88;;;22.20;83.90;;;;;;5021888;28;20033;-77
2023/06/20 00:30:13;;;;;;;3.38;2.65;;;22.20;83.90;;;;;;4998233;28;20032;-76
2023/06/20 00:32:39;;;;;;;4.30;2.83;;;22.20;84.00;;;;;;5022155;28;20037;-76
2023/06/20 00:35:05;;;;;;;4.15;2.80;;;22.20;84.00;;;;;;5021130;28;20034;-76
2023/06/20 00:37:30;;;;;;;4.22;2.67;;;22.20;84.00;;;;;;5021078;28;20452;-77
2023/06/20 00:39:56;;;;;;;4.53;2.88;;;22.20;84.00;;;;;;5004532;28;20032;-77
2023/06/20 00:42:23;;;;;;;4.28;3.00;;;22.20;84.10;;;;;;4997774;28;20033;-77
2023/06/20 00:44:52;;;;;;;4.35;2.90;;;22.20;84.00;;;;;;5007057;28;20072;-77
2023/06/20 00:47:20;;;;;;;4.50;3.13;;;22.20;83.90;;;;;;5037304;28;20467;-78
2023/06/20 00:49:48;;;;;;;4.57;3.03;;;22.20;84.00;;;;;;5036184;28;20116;-77
2023/06/20 00:52:19;;;;;;;4.53;3.05;;;22.30;84.60;;;;;;5021464;28;20063;-77
2023/06/20 00:54:46;;;;;;;4.43;2.70;;;22.30;83.90;;;;;;4999748;28;20075;-77
2023/06/20 00:57:14;;;;;;;3.88;2.53;;;22.20;83.80;;;;;;4982776;28;20049;-77
2023/06/20 00:59:43;;;;;;;5.20;3.33;;;22.30;83.90;;;;;;4997868;28;20022;-77
2023/06/20 01:02:10;;;;;;;4.07;2.78;;;22.30;83.90;;;;;;4998769;28;20539;-76
2023/06/20 01:04:37;;;;;;;4.93;2.97;;;22.20;83.80;;;;;;5004626;28;20538;-77
2023/06/20 01:07:12;;;;;;;5.15;2.75;;;22.20;83.80;;;;;;5019997;28;20025;-77
2023/06/20 01:10:10;;;;;;;3.60;2.70;;;22.20;83.80;;;;;;5015774;28;20030;-76
2023/06/20 01:12:53;;;;;;;4.43;2.92;;;22.20;83.80;;;;;;4997167;28;20021;-77
2023/06/20 01:15:25;;;;;;;5.13;3.22;;;22.20;83.90;;;;;;4998311;28;20040;-76
2023/06/20 01:18:30;;;;;;;4.97;2.70;;;22.20;84.00;;;;;;5016030;28;20072;-76
2023/06/20 01:21:11;;;;;;;5.38;3.05;;;22.20;83.90;;;;;;5021397;28;20025;-76
2023/06/20 01:23:52;;;;;;;4.30;3.13;;;22.20;84.00;;;;;;5021033;28;20057;-76
2023/06/20 01:26:35;;;;;;;3.42;2.78;;;22.10;84.00;;;;;;5021479;28;20553;-76
2023/06/20 01:29:20;;;;;;;4.20;2.78;;;22.10;84.10;;;;;;5020990;28;20036;-78
2023/06/20 01:31:57;;;;;;;4.22;2.92;;;22.10;84.70;;;;;;4998467;28;20025;-76
2023/06/20 01:34:29;;;;;;;4.78;2.80;;;22.10;84.20;;;;;;5020461;28;20028;-77
2023/06/20 01:36:59;;;;;;;4.63;3.25;;;22.10;84.20;;;;;;5020408;28;20435;-77
2023/06/20 01:39:41;;;;;;;3.53;2.55;;;22.10;84.20;;;;;;4997712;28;20139;-77
2023/06/20 01:42:07;;;;;;;4.20;2.92;;;22.10;84.20;;;;;;4998161;28;20061;-77
2023/06/20 01:44:35;;;;;;;4.65;3.08;;;22.10;84.20;;;;;;4987945;28;20442;-76
2023/06/20 01:47:04;;;;;;;4.80;3.20;;;22.10;84.30;;;;;;5020616;28;20057;-76
2023/06/20 01:49:31;;;;;;;4.03;2.88;;;22.10;84.30;;;;;;5020092;28;20017;-76
2023/06/20 01:51:58;;;;;;;4.05;3.03;;;22.10;84.30;;;;;;5020282;28;20107;-77
2023/06/20 01:54:27;;;;;;;4.53;3.13;;;22.10;84.30;;;;;;5035878;28;20034;-77
2023/06/20 01:56:54;;;;;;;4.60;2.97;;;22.10;84.40;;;;;;5020993;28;20087;-77
2023/06/20 01:59:20;;;;;;;5.88;3.25;;;22.10;84.40;;;;;;5020713;28;20029;-76
2023/06/20 02:01:49;;;;;;;4.82;3.35;;;22.10;84.50;;;;;;4996828;28;20026;-76
2023/06/20 02:04:17;;;;;;;4.05;2.92;;;22.10;84.60;;;;;;4997801;28;20037;-77
2023/06/20 02:06:43;;;;;;;4.43;3.05;;;22.00;84.50;;;;;;4998593;28;20029;-77
2023/06/20 02:09:16;;;;;;;5.57;3.40;;;22.00;84.50;;;;;;5020466;28;20108;-77
2023/06/20 02:11:43;;;;;;;4.57;3.03;;;22.00;84.60;;;;;;5020995;28;20029;-77
2023/06/20 02:14:10;;;;;;;4.18;2.90;;;22.10;84.60;;;;;;5018906;28;20107;-76
2023/06/20 02:16:36;;;;;;;4.88;3.38;;;22.10;84.70;;;;;;4997252;28;20029;-76
2023/06/20 02:19:07;;;;;;;4.05;3.03;;;22.00;84.70;;;;;;5018141;28;20029;-77
2023/06/20 02:21:38;;;;;;;4.97;3.42;;;22.00;84.70;;;;;;4998485;28;20123;-76
2023/06/20 02:24:05;;;;;;;4.72;3.20;;;22.00;84.80;;;;;;4998865;28;20096;-77
2023/06/20 02:26:39;;;;;;;4.15;2.95;;;22.00;84.90;;;;;;5020379;28;20018;-77
2023/06/20 02:29:07;;;;;;;5.00;3.28;;;22.00;85.00;;;;;;4979822;28;20040;-77
2023/06/20 02:31:38;;;;;;;4.93;3.53;;;22.00;85.10;;;;;;5019838;28;20110;-77
2023/06/20 02:34:08;;;;;;;3.70;3.00;;;22.00;85.20;;;;;;4999057;28;20033;-77
2023/06/20 02:36:34;;;;;;;4.38;3.30;;;21.90;85.20;;;;;;5002738;28;20990;-77
2023/06/20 02:39:01;;;;;;;4.20;2.95;;;21.90;85.30;;;;;;5019310;28;20048;-77
2023/06/20 02:41:26;;;;;;;3.92;3.20;;;21.90;85.40;;;;;;4998022;28;20029;-76
2023/06/20 02:43:58;;;;;;;4.47;3.40;;;21.90;85.50;;;;;;5018047;28;20025;-76
2023/06/20 02:46:49;;;;;;;4.90;3.50;;;21.90;85.50;;;;;;4997008;28;20061;-76
2023/06/20 02:49:51;;;;;;;4.55;3.13;;;21.90;85.60;;;;;;5035047;28;20470;-76
2023/06/20 02:52:43;;;;;;;5.93;3.28;;;21.90;85.70;;;;;;4998725;28;20541;-76
2023/06/20 02:55:32;;;;;;;4.40;3.25;;;21.80;86.30;;;;;;5001993;28;20095;-77
2023/06/20 02:58:00;;;;;;;5.53;3.40;;;21.80;85.80;;;;;;5019684;28;20037;-76
2023/06/20 03:00:26;;;;;;;5.00;3.78;;;21.80;85.90;;;;;;5020364;28;20109;-76
2023/06/20 03:03:01;;;;;;;4.07;3.20;;;21.80;86.00;;;;;;5002028;28;20072;-76
2023/06/20 03:05:30;;;;;;;5.03;3.20;;;21.80;86.10;;;;;;5019775;28;20051;-77
2023/06/20 03:07:59;;;;;;;4.45;3.35;;;21.80;86.10;;;;;;5019263;28;20142;-77
2023/06/20 03:10:25;;;;;;;6.38;4.20;;;21.80;86.20;;;;;;5018831;28;20477;-77
2023/06/20 03:12:50;;;;;;;4.63;3.22;;;21.80;86.20;;;;;;5020023;28;20132;-77
2023/06/20 03:15:19;;;;;;;4.45;3.50;;;21.80;86.30;;;;;;5019241;28;20110;-77
2023/06/20 03:17:49;;;;;;;5.38;3.60;;;21.80;86.30;;;;;;5008016;28;20025;-77
2023/06/20 03:20:15;;;;;;;4.88;3.63;;;21.80;86.30;;;;;;4997215;28;20033;-77
2023/06/20 03:22:40;;;;;;;5.05;3.67;;;21.80;87.00;;;;;;5001912;28;20033;-78
2023/06/20 03:25:06;;;;;;;5.03;3.58;;;21.80;86.50;;;;;;5018906;28;20489;-77
2023/06/20 03:27:32;;;;;;;5.45;3.28;;;21.80;86.60;;;;;;4980593;28;20037;-77
2023/06/20 03:30:03;;;;;;;5.45;4.10;;;21.80;86.70;;;;;;5020886;28;20033;-77
2023/06/20 03:32:29;;;;;;;4.45;3.72;;;21.80;86.90;;;;;;5037987;28;20132;-76
2023/06/20 03:34:55;;;;;;;5.95;3.90;;;21.80;87.00;;;;;;5005790;28;20116;-77
2023/06/20 03:37:21;;;;;;;4.35;3.45;;;21.70;87.10;;;;;;5020696;28;20347;-76
2023/06/20 03:39:50;;;;;;;6.10;3.83;;;21.70;87.10;;;;;;5004543;28;20079;-76
2023/06/20 03:42:19;;;;;;;5.15;3.78;;;21.70;87.20;;;;;;4984204;28;20096;-76
2023/06/20 03:44:48;;;;;;;4.75;3.65;;;21.70;87.30;;;;;;4999257;28;20038;-76
2023/06/20 03:47:16;;;;;;;5.22;3.88;;;21.70;87.40;;;;;;5037453;28;20079;-76
2023/06/20 03:49:42;;;;;;;5.43;3.80;;;21.70;87.40;;;;;;5021136;28;20525;-77
2023/06/20 03:52:13;;;;;;;6.22;3.75;;;21.70;88.10;;;;;;5021883;28;20025;-77
2023/06/20 03:54:40;;;;;;;6.53;4.50;;;21.70;87.60;;;;;;5022447;28;20029;-76
2023/06/20 03:57:06;;;;;;;5.78;3.78;;;21.70;87.60;;;;;;4983044;28;20492;-77
2023/06/20 03:59:36;;;;;;;6.30;4.03;;;21.70;87.70;;;;;;5022122;28;20485;-77
2023/06/20 04:02:04;;;;;;;5.22;3.92;;;21.70;87.80;;;;;;5001237;28;20134;-77
2023/06/20 04:04:32;;;;;;;5.80;4.10;;;21.70;87.90;;;;;;4998865;28;20438;-77
2023/06/20 04:06:57;;;;;;;6.85;3.75;;;21.70;87.90;;;;;;4999470;28;20029;-76
2023/06/20 04:09:26;;;;;;;5.30;3.85;;;21.70;88.00;;;;;;5016817;28;20432;-77
2023/06/20 04:11:54;;;;;;;5.03;3.92;;;21.60;88.00;;;;;;5020212;28;20116;-76
2023/06/20 04:14:20;;;;;;;5.38;3.75;;;21.70;88.10;;;;;;5020345;28;20405;-76
2023/06/20 04:16:49;;;;;;;6.15;3.92;;;21.60;88.20;;;;;;5022939;28;20034;-77
2023/06/20 04:19:18;;;;;;;4.90;4.10;;;21.70;88.20;;;;;;5022990;28;20040;-77
2023/06/20 04:21:50;;;;;;;4.97;4.15;;;21.70;88.20;;;;;;5024514;28;20473;-78
2023/06/20 04:24:18;;;;;;;5.15;4.20;;;21.70;88.30;;;;;;5022464;28;20053;-77
2023/06/20 04:26:44;;;;;;;5.63;3.90;;;21.60;88.40;;;;;;5016282;28;20172;-77
2023/06/20 04:29:13;;;;;;;5.22;4.00;;;21.70;88.40;;;;;;5022735;28;20029;-77
2023/06/20 04:31:39;;;;;;;4.68;3.50;;;21.60;88.70;;;;;;5037350;28;20037;-77
2023/06/20 04:34:07;;;;;;;4.43;3.45;;;21.60;88.50;;;;;;5009161;28;20390;-77
2023/06/20 04:36:34;;;;;;;6.05;3.85;;;21.60;88.50;;;;;;5037404;28;20037;-77
2023/06/20 04:39:00;;;;;;;4.57;3.90;;;21.60;88.60;;;;;;5000070;28;20120;-77
2023/06/20 04:41:26;;;;;;;5.13;3.67;;;21.60;88.70;;;;;;5004690;28;20022;-78
2023/06/20 04:43:51;;;;;;;4.55;3.72;;;21.60;88.80;;;;;;5037151;28;20586;-78
2023/06/20 04:46:17;;;;;;;5.03;3.22;;;21.70;88.90;;;;;;5036064;28;20495;-78
2023/06/20 04:48:44;;;;;;;6.10;3.90;;;21.70;88.90;;;;;;5036981;28;20030;-78
2023/06/20 04:51:10;;;;;;;3.90;3.10;;;21.70;88.90;;;;;;5020606;28;20037;-77
2023/06/20 04:53:39;;;;;;;5.50;4.10;;;21.80;89.00;;;;;;4998701;28;20709;-77
2023/06/20 04:56:07;;;;;;;4.28;3.67;;;21.80;88.90;;;;;;5020848;28;20029;-78
2023/06/20 04:58:34;;;;;;;5.80;3.80;;;21.80;89.00;;;;;;4980874;28;20485;-77
2023/06/20 05:01:00;;;;;;;7.70;4.60;;;21.80;88.90;;;;;;5020461;28;20030;-77
2023/06/20 05:03:29;;;;;;;5.63;3.97;;;21.90;89.10;;;;;;4999285;28;20037;-77
2023/06/20 05:05:56;;;;;;;5.82;4.03;;;21.90;89.10;;;;;;4998005;28;20128;-77
2023/06/20 05:08:23;;;;;;;6.72;4.03;;;21.90;89.10;;;;;;4996343;28;20116;-77
2023/06/20 05:10:52;;;;;;;5.72;3.83;;;21.90;89.20;;;;;;5017026;28;20094;-77
2023/06/20 05:13:19;;;;;;;5.22;3.50;;;21.90;89.20;;;;;;5019997;28;20032;-77
2023/06/20 05:15:45;;;;;;;4.72;3.53;;;21.90;89.30;;;;;;5017216;28;20041;-78
2023/06/20 05:18:11;;;;;;;5.18;4.18;;;22.00;89.40;;;;;;4996303;28;20053;-77
2023/06/20 05:20:37;;;;;;;5.47;3.92;;;22.00;89.50;;;;;;5020182;28;20045;-77
2023/06/20 05:23:05;;;;;;;6.00;3.88;;;22.00;90.00;;;;;;4997601;28;20045;-77
2023/06/20 05:25:31;;;;;;;6.35;3.97;;;22.10;89.50;;;;;;5036404;28;20025;-76
2023/06/20 05:27:57;;;;;;;5.28;3.85;;;22.10;89.60;;;;;;5020775;28;20618;-78
2023/06/20 05:30:26;;;;;;;5.32;4.60;;;22.10;89.50;;;;;;5035417;28;20473;-78
2023/06/20 05:32:52;;;;;;;5.03;4.28;;;22.10;89.60;;;;;;5035832;28;20029;-78
2023/06/20 05:35:18;;;;;;;5.60;4.32;;;22.10;89.70;;;;;;5008725;28;20092;-77
2023/06/20 05:37:46;;;;;;;6.00;4.93;;;22.20;89.80;;;;;;5021199;28;20067;-78
2023/06/20 05:40:12;;;;;;;4.78;4.28;;;22.20;89.80;;;;;;5021251;28;20032;-77
2023/06/20 05:42:38;;;;;;;7.30;4.55;;;22.30;89.80;;;;;;5002919;28;20033;-78
2023/06/20 05:45:04;;;;;;;5.88;4.90;;;22.30;89.60;;;;;;4982250;28;20124;-77
2023/06/20 05:47:30;;;;;;;4.82;4.22;;;22.30;89.60;;;;;;5020083;28;20037;-77
2023/06/20 05:49:57;;;;;;;6.18;4.85;;;22.30;90.10;;;;;;4983760;28;20095;-77
2023/06/20 05:52:22;;;;;;;7.53;4.43;;;22.40;89.70;;;;;;5016825;28;20038;-78
2023/06/20 05:54:54;;;;;;;6.00;4.53;;;22.40;89.80;;;;;;5020172;28;20052;-77
2023/06/20 05:57:22;;;;;;;5.45;4.18;;;22.40;89.80;;;;;;4995932;28;20458;-77
2023/06/20 05:59:50;;;;;;;5.45;4.30;;;22.30;89.80;;;;;;5003141;28;20087;-77
2023/06/20 06:02:18;;;;;;;5.15;4.47;;;22.30;89.90;;;;;;5002297;28;20044;-77
2023/06/20 06:04:44;;;;;;;6.13;4.63;;;22.30;90.00;;;;;;5018707;28;20033;-77
2023/06/20 06:07:11;;;;;;;7.00;4.93;;;22.30;90.00;;;;;;5033175;28;20047;-78
2023/06/20 06:09:36;;;;;;;7.03;5.43;;;22.30;90.00;;;;;;5020637;28;20075;-78
2023/06/20 06:12:02;;;;;;;8.50;5.38;;;22.40;90.00;;;;;;5001968;28;20164;-79
2023/06/20 06:14:28;;;;;;;6.03;5.05;;;22.40;90.00;;;;;;4996260;28;20022;-77
2023/06/20 06:16:54;;;;;;;5.95;4.25;;;22.50;90.10;;;;;;4981015;28;20026;-78
2023/06/20 06:19:21;;;;;;;6.35;4.72;;;22.50;90.00;;;;;;5021336;28;20148;-78
2023/06/20 06:21:47;;;;;;;6.43;5.03;;;22.50;90.00;;;;;;5021123;28;20030;-78
2023/06/20 06:24:13;;;;;;;8.05;6.45;;;22.60;90.10;;;;;;4977446;28;20065;-78
2023/06/20 06:26:41;;;;;;;7.00;5.80;;;22.70;90.00;;;;;;5000288;28;22099;-78
2023/06/20 06:29:10;;;;;;;6.30;5.68;;;22.70;90.00;;;;;;5001361;28;20026;-77
2023/06/20 06:31:39;;;;;;;7.68;5.35;;;22.80;90.00;;;;;;4999226;28;20100;-77
2023/06/20 06:34:07;;;;;;;6.80;5.57;;;22.90;90.00;;;;;;5014647;28;20038;-77
2023/06/20 06:36:34;;;;;;;7.10;6.28;;;22.90;89.90;;;;;;4999067;28;20096;-78
2023/06/20 06:39:00;;;;;;;7.82;5.80;;;23.00;89.80;;;;;;4999575;28;20045;-77
2023/06/20 06:41:26;;;;;;;7.18;5.40;;;23.10;89.80;;;;;;5001108;28;20040;-78
2023/06/20 06:43:52;;;;;;;7.05;5.68;;;23.20;89.60;;;;;;4993300;28;20034;-77
2023/06/20 06:46:18;;;;;;;7.22;6.00;;;23.40;89.70;;;;;;4994992;28;20398;-78
2023/06/20 06:48:43;;;;;;;7.47;6.43;;;23.50;89.60;;;;;;4993640;28;20458;-77
2023/06/20 06:51:09;;;;;;;7.10;6.03;;;23.50;89.40;;;;;;4993007;28;20036;-77
2023/06/20 06:53:38;;;;;;;6.78;5.40;;;23.50;89.50;;;;;;4994615;28;20026;-77
2023/06/20 06:56:05;;;;;;;5.85;5.10;;;23.60;89.60;;;;;;5030746;28;20500;-77
2023/06/20 06:58:30;;;;;;;6.97;5.57;;;23.70;89.60;;;;;;4999328;28;20414;-77
2023/06/20 07:00:57;;;;;;;6.53;5.70;;;23.90;89.50;;;;;;4997628;28;20034;-78
2023/06/20 07:03:25;;;;;;;6.28;5.45;;;24.00;89.20;;;;;;5032201;28;20038;-77
2023/06/20 07:05:51;;;;;;;6.63;5.90;;;24.20;89.10;;;;;;5017136;28;20386;-77
2023/06/20 07:08:18;;;;;;;7.70;5.95;;;24.30;88.90;;;;;;4997977;28;20025;-77
2023/06/20 07:10:47;;;;;;;6.97;6.13;;;24.30;88.90;;;;;;5004231;28;20386;-77
2023/06/20 07:13:13;;;;;;;5.93;5.30;;;24.30;89.00;;;;;;5003854;28;20080;-76
2023/06/20 07:15:38;;;;;;;5.55;4.88;;;24.50;89.00;;;;;;5034642;28;20038;-77
2023/06/20 07:18:07;;;;;;;6.13;5.20;;;24.60;89.00;;;;;;5002238;28;20451;-77
2023/06/20 07:20:35;;;;;;;6.85;5.55;;;24.80;88.70;;;;;;5002278;28;21323;-78
2023/06/20 07:23:03;;;;;;;5.82;5.22;;;24.80;88.60;;;;;;4995618;28;20088;-78
2023/06/20 07:25:29;;;;;;;6.18;5.57;;;24.90;88.70;;;;;;4993307;28;20065;-77
2023/06/20 07:27:57;;;;;;;6.88;5.90;;;24.90;88.70;;;;;;4981879;28;20414;-78
2023/06/20 07:30:25;;;;;;;7.18;5.78;;;24.80;88.80;;;;;;4981655;28;20030;-77
2023/06/20 07:32:54;;;;;;;6.90;6.00;;;24.90;88.90;;;;;;4977484;28;20030;-78
2023/06/20 07:35:23;;;;;;;7.65;6.22;;;25.00;88.90;;;;;;5012950;28;20072;-78
2023/06/20 07:37:53;;;;;;;6.65;5.82;;;25.00;88.90;;;;;;4975633;28;20170;-77
2023/06/20 07:40:31;;;;;;;7.65;5.47;;;24.90;89.10;;;;;;4998996;28;20399;-78
2023/06/20 07:43:02;;;;;;;8.18;7.22;;;24.90;89.20;;;;;;4977747;28;20065;-77
2023/06/20 07:45:28;;;;;;;5.95;5.35;;;25.00;89.10;;;;;;4992570;28;20030;-78
2023/06/20 07:47:54;;;;;;;6.20;5.45;;;25.10;88.90;;;;;;4982216;28;20034;-78
2023/06/20 07:50:19;;;;;;;7.05;5.50;;;25.20;88.80;;;;;;4981696;28;20022;-77
2023/06/20 07:52:45;;;;;;;6.40;5.43;;;25.40;88.90;;;;;;4960994;28;20703;-77
2023/06/20 07:55:13;;;;;;;8.82;7.00;;;25.40;88.60;;;;;;4980968;28;20042;-78
2023/06/20 07:57:44;;;;;;;8.20;7.40;;;25.50;88.70;;;;;;4980085;28;21046;-76
2023/06/20 08:00:11;;;;;;;7.35;6.63;;;25.50;88.90;;;;;;5010125;28;20038;-77
2023/06/20 08:02:37;;;;;;;7.82;6.28;;;25.50;88.80;;;;;;4981970;28;20398;-76
2023/06/20 08:05:04;;;;;;;6.60;5.90;;;25.60;88.80;;;;;;4995703;28;20049;-77
2023/06/20 08:07:30;;;;;;;7.25;5.95;;;25.80;89.30;;;;;;4997609;28;20479;-77
2023/06/20 08:10:00;;;;;;;8.35;7.38;;;25.90;88.60;;;;;;4991561;28;20031;-77
2023/06/20 08:12:30;;;;;;;6.13;5.53;;;25.90;88.60;;;;;;4981019;28;20045;-77
2023/06/20 08:14:57;;;;;;;8.57;7.00;;;25.80;88.50;;;;;;4975348;28;20046;-78
2023/06/20 08:17:23;;;;;;;7.13;6.38;;;25.80;88.80;;;;;;4982356;28;20042;-77
2023/06/20 08:19:49;;;;;;;6.70;6.00;;;25.70;89.10;;;;;;5012314;28;20506;-76
2023/06/20 08:22:17;;;;;;;6.15;5.45;;;25.60;89.30;;;;;;4980079;28;20026;-77
2023/06/20 08:24:49;;;;;;;6.28;5.53;;;25.60;89.50;;;;;;4994317;28;20140;-77
2023/06/20 08:27:22;;;;;;;5.83;5.20;;;25.50;89.60;;;;;;5033725;28;20072;-79
2023/06/20 08:29:50;;;;;;;;;;;25.40;89.60;;;;;;5003615;28;20293;-77
2023/06/20 08:32:19;;;;;;;5.47;4.25;;;25.40;89.50;;;;;;5002825;28;19917;-77
2023/06/20 08:34:49;;;;;;;4.78;3.75;;;25.60;89.70;;;;;;4980600;28;20038;-78
2023/06/20 08:37:28;;;;;;;5.25;4.22;;;25.70;89.60;;;;;;5014522;28;20022;-77
2023/06/20 08:39:56;;;;;;;6.25;4.32;;;25.90;89.40;;;;;;4995548;28;20117;-77
2023/06/20 08:42:23;;;;;;;5.70;5.00;;;26.00;89.10;;;;;;4996909;28;20037;-77
2023/06/20 08:44:50;;;;;;;5.85;4.22;;;26.10;89.10;;;;;;5001446;28;20030;-77
2023/06/20 08:47:20;;;;;;;4.82;4.10;;;26.10;89.10;;;;;;4996964;28;20101;-77
2023/06/20 08:49:46;;;;;;;5.63;4.40;;;26.10;89.10;;;;;;5001694;28;20116;-77
2023/06/20 08:52:12;;;;;;;5.63;4.10;;;26.30;88.90;;;;;;5002830;28;20060;-78
2023/06/20 08:54:41;;;;;;;5.28;4.63;;;26.30;88.70;;;;;;5002203;28;20030;-77
2023/06/20 08:57:08;;;;;;;5.35;4.40;;;26.30;88.30;;;;;;5033016;28;20042;-77
2023/06/20 08:59:36;;;;;;;5.30;4.40;;;26.30;88.40;;;;;;5001744;28;20053;-77
2023/06/20 09:02:07;;;;;;;4.97;4.20;;;26.40;88.30;;;;;;4999774;28;20112;-77
2023/06/20 09:04:33;;;;;;;5.53;4.80;;;26.50;88.10;;;;;;5033390;28;20034;-77
2023/06/20 09:07:01;;;;;;;4.90;4.40;;;26.60;88.00;;;;;;5017142;28;20449;-77
2023/06/20 09:09:27;;;;;;;6.20;4.03;;;26.70;87.80;;;;;;5001188;28;20041;-77
2023/06/20 09:11:58;;;;;;;3.85;3.20;;;26.90;87.70;;;;;;4995597;28;20054;-77
2023/06/20 09:14:32;;;;;;;4.20;3.70;;;27.20;87.50;;;;;;5033198;28;20040;-77
2023/06/20 09:17:04;;;;;;;4.30;3.55;;;27.40;87.10;;;;;;5000075;28;20049;-77
2023/06/20 09:19:43;;;;;;;5.78;3.63;;;27.70;87.00;;;;;;5000847;28;20021;-77
2023/06/20 09:22:17;;;;;;;4.70;3.35;;;27.90;86.60;;;;;;5031344;28;20038;-77
2023/06/20 09:24:45;;;;;;;5.32;4.30;;;28.00;86.40;;;;;;4979521;28;20088;-77
2023/06/20 09:27:11;;;;;;;5.18;4.05;;;28.10;86.00;;;;;;4994844;28;20212;-77
2023/06/20 09:29:53;;;;;;;4.47;3.50;;;28.10;85.80;;;;;;4994780;28;20029;-76
2023/06/20 09:32:21;;;;;;;5.20;4.00;;;28.20;86.00;;;;;;4995241;28;20017;-77
2023/06/20 09:34:49;;;;;;;5.38;4.60;;;28.30;85.80;;;;;;4994711;28;20034;-77
2023/06/20 09:37:16;;;;;;;5.20;3.65;;;28.60;85.40;;;;;;5003670;28;20042;-77
2023/06/20 09:39:43;;;;;;;4.32;3.90;;;29.20;84.90;;;;;;5002304;28;20441;-77
2023/06/20 09:42:13;;;;;;;4.57;3.88;;;29.90;84.30;;;;;;4999893;28;20054;-77
2023/06/20 09:44:41;;;;;;;4.22;3.28;;;30.60;83.70;;;;;;5001619;28;20037;-77
2023/06/20 09:47:15;;;;;;;5.47;4.03;;;31.10;82.80;;;;;;5001787;28;20037;-77
2023/06/20 09:49:46;;;;;;;4.53;3.50;;;31.80;82.00;;;;;;5000367;28;20497;-78
2023/06/20 09:52:25;;;;;;;4.57;3.20;;;32.60;81.50;;;;;;5002002;28;20052;-78
2023/06/20 09:54:57;;;;;;;5.15;3.22;;;32.70;80.90;;;;;;4999682;28;20128;-78
2023/06/20 09:57:41;;;;;;;3.90;3.45;;;32.90;80.50;;;;;;5000719;28;20042;-78
2023/06/20 10:00:13;;;;;;;4.55;3.78;;;33.10;78.50;;;;;;5000530;28;20026;-77
2023/06/20 10:02:47;;;;;;;5.20;3.60;;;32.20;77.80;;;;;;5013607;28;20060;-77
2023/06/20 10:05:17;;;;;;;4.47;3.80;;;31.80;79.20;;;;;;4982508;28;20414;-76
2023/06/20 10:07:45;;;;;;;4.60;3.83;;;32.30;78.80;;;;;;5030968;28;20524;-77
2023/06/20 10:10:16;;;;;;;4.30;3.55;;;32.40;77.50;;;;;;5001248;28;20120;-77
2023/06/20 10:12:44;;;;;;;4.07;3.05;;;32.40;78.00;;;;;;4997697;28;20034;-77
2023/06/20 10:15:14;;;;;;;3.85;3.10;;;32.20;78.10;;;;;;5031842;28;20302;-77
2023/06/20 10:17:41;;;;;;;5.10;3.78;;;32.20;78.30;;;;;;4996650;28;20037;-78
2023/06/20 10:20:34;;;;;;;5.30;3.70;;;32.70;77.10;;;;;;4994001;28;20057;-78
2023/06/20 10:23:05;;;;;;;3.53;3.22;;;32.40;76.70;;;;;;5032332;28;20508;-78
2023/06/20 10:25:34;;;;;;;3.60;2.97;;;31.90;77.60;;;;;;5018023;28;20459;-78
2023/06/20 10:28:05;;;;;;;4.65;2.83;;;31.90;78.10;;;;;;5020611;28;20044;-77
2023/06/20 10:30:49;;;;;;;3.58;2.97;;;31.80;78.10;;;;;;4999090;28;20033;-78
2023/06/20 10:33:24;;;;;;;3.72;2.92;;;32.40;78.00;;;;;;5020829;28;20037;-78
2023/06/20 10:35:54;;;;;;;3.70;2.92;;;33.10;76.90;;;;;;4997073;28;20056;-77
2023/06/20 10:38:21;;;;;;;3.30;2.80;;;34.10;76.30;;;;;;5021248;28;20030;-77
2023/06/20 10:40:47;;;;;;;3.13;2.35;;;34.50;75.30;;;;;;5024647;28;20033;-77
2023/06/20 10:43:18;;;;;;;4.10;2.80;;;34.20;75.00;;;;;;5006686;28;20040;-78
2023/06/20 10:45:57;;;;;;;4.38;2.80;;;33.50;75.30;;;;;;5024610;28;20034;-77
2023/06/20 10:48:24;;;;;;;2.75;2.40;;;33.30;76.00;;;;;;5001473;28;20073;-77
2023/06/20 10:50:51;;;;;;;2.58;2.10;;;33.80;76.20;;;;;;5022207;28;20037;-77
2023/06/20 10:53:17;;;;;;;2.30;1.85;;;34.70;75.30;;;;;;5001751;28;20033;-77
2023/06/20 10:55:43;;;;;;;3.05;2.13;;;35.00;74.70;;;;;;5020957;28;20119;-78
2023/06/20 10:58:08;;;;;;;3.60;2.20;;;34.60;74.60;;;;;;4998806;28;20531;-77
2023/06/20 11:00:34;;;;;;;3.00;2.08;;;34.00;74.70;;;;;;5039607;28;20029;-77
2023/06/20 11:03:01;;;;;;;2.60;2.03;;;33.60;74.90;;;;;;5037692;28;20038;-77
2023/06/20 11:05:28;;;;;;;2.55;1.70;;;33.50;75.60;;;;;;5024001;28;20048;-78
2023/06/20 11:08:03;;;;;;;2.75;1.98;;;34.00;75.20;;;;;;5002435;28;20028;-78
2023/06/20 11:10:33;;;;;;;2.10;1.60;;;33.70;74.00;;;;;;5001477;28;20040;-78
2023/06/20 11:13:02;;;;;;;3.83;2.05;;;33.20;74.70;;;;;;5023901;28;20044;-77
2023/06/20 11:15:32;;;;;;;2.17;1.88;;;32.80;75.00;;;;;;5002622;28;20025;-77
2023/06/20 11:18:07;;;;;;;2.87;1.87;;;32.40;75.50;;;;;;5018965;28;20157;-77
2023/06/20 11:20:52;;;;;;;2.10;1.80;;;32.80;75.80;;;;;;5005266;28;20040;-77
2023/06/20 11:23:19;;;;;;;2.13;1.67;;;33.80;74.70;;;;;;5022703;28;20087;-77
2023/06/20 11:25:45;;;;;;;2.50;1.65;;;34.70;74.20;;;;;;5016161;28;20045;-77
2023/06/20 11:28:14;;;;;;;1.80;1.65;;;35.60;73.20;;;;;;5023093;28;20107;-78
2023/06/20 11:30:48;;;;;;;2.13;1.63;;;35.90;72.00;;;;;;5021778;28;20053;-78
2023/06/20 11:33:15;;;;;;;2.63;1.90;;;35.80;71.60;;;;;;5025786;28;20037;-78
2023/06/20 11:35:54;;;;;;;2.45;1.90;;;36.00;71.20;;;;;;5024306;28;20025;-78
2023/06/20 11:38:23;;;;;;;3.17;2.10;;;36.10;70.60;;;;;;5024120;28;20500;-77
2023/06/20 11:41:13;;;;;;;3.28;1.70;;;35.80;70.40;;;;;;5022972;28;20383;-77
2023/06/20 11:43:41;;;;;;;3.28;2.08;;;36.20;70.80;;;;;;5000574;28;20046;-77
2023/06/20 11:46:08;;;;;;;3.00;1.58;;;36.60;70.60;;;;;;5019814;28;20033;-78
2023/06/20 11:48:35;;;;;;;1.90;1.45;;;36.80;70.30;;;;;;5004961;28;20037;-78
2023/06/20 11:51:04;;;;;;;2.08;1.52;;;37.10;70.40;;;;;;5036233;28;20025;-77
2023/06/20 11:53:33;;;;;;;2.10;1.73;;;37.60;69.90;;;;;;4999896;28;20029;-78
2023/06/20 11:56:06;;;;;;;2.22;1.48;;;37.90;69.60;;;;;;5022870;28;20407;-77
2023/06/20 11:58:47;;;;;;;1.75;1.40;;;37.90;69.20;;;;;;5022631;28;20057;-77
2023/06/20 12:01:17;;;;;;;1.60;1.33;;;38.10;69.10;;;;;;5019159;28;20056;-77
2023/06/20 12:03:44;;;;;;;1.50;1.40;;;38.10;68.80;;;;;;5000487;28;20124;-77
2023/06/20 12:06:30;;;;;;;1.85;1.30;;;38.10;68.40;;;;;;5022829;28;20026;-77
2023/06/20 12:08:58;;;;;;;3.45;1.55;;;38.20;68.20;;;;;;4983677;28;20710;-78
2023/06/20 12:11:26;;;;;;;1.60;1.35;;;38.10;67.80;;;;;;5023150;28;20155;-78
2023/06/20 12:13:52;;;;;;;1.67;1.35;;;38.10;67.90;;;;;;5000762;28;20026;-78
2023/06/20 12:16:19;;;;;;;1.77;1.40;;;38.50;67.80;;;;;;5001178;28;20041;-78
2023/06/20 12:18:47;;;;;;;1.60;1.40;;;38.90;67.60;;;;;;5024075;28;20026;-78
2023/06/20 12:21:12;;;;;;;2.10;1.27;;;39.10;67.40;;;;;;5038271;28;22411;-78
2023/06/20 12:23:40;;;;;;;1.58;1.42;;;39.20;66.90;;;;;;5022601;28;20030;-78
2023/06/20 12:26:06;;;;;;;2.53;1.50;;;38.90;66.50;;;;;;5023030;28;20443;-79
2023/06/20 12:28:32;;;;;;;1.50;1.17;;;38.70;67.50;;;;;;5000821;28;22490;-79
2023/06/20 12:30:59;;;;;;;1.23;1.13;;;38.80;66.90;;;;;;4983470;28;20489;-78
2023/06/20 12:33:33;;;;;;;1.90;1.50;;;39.10;66.80;;;;;;5005055;28;20496;-78
2023/06/20 12:35:59;;;;;;;2.28;1.35;;;39.60;66.60;;;;;;5022156;28;20091;-78
2023/06/20 12:38:25;;;;;;;2.13;1.40;;;39.80;66.30;;;;;;4983716;28;20037;-78
2023/06/20 12:40:52;;;;;;;2.03;1.40;;;39.80;66.10;;;;;;5022186;28;20428;-78
2023/06/20 12:43:20;;;;;;;1.35;1.25;;;39.80;66.10;;;;;;5000472;28;20112;-78
2023/06/20 12:45:46;;;;;;;1.90;1.33;;;39.50;65.30;;;;;;5022577;28;20040;-78
2023/06/20 12:48:12;;;;;;;1.83;1.30;;;39.20;65.60;;;;;;4999978;28;20087;-78
2023/06/20 12:50:38;;;;;;;2.08;1.55;;;39.20;65.50;;;;;;5027463;28;20044;-78
2023/06/20 12:53:06;;;;;;;1.73;1.20;;;38.70;65.20;;;;;;4985887;28;20037;-78
2023/06/20 12:55:32;;;;;;;1.40;1.30;;;38.60;65.50;;;;;;5007433;28;20060;-78
2023/06/20 12:57:58;;;;;;;1.33;1.20;;;38.60;65.50;;;;;;5035242;28;20785;-78